Airfield :
LOGIN :

Register | Disclaimer

   EN    FR    IT 

 










Legend :    VFR   Marginal VFR   IFR   Intensive IFR   Very Intensive IFR
Visi :
Ceiling :
>= 8 km
>= 3000ft
5 to 8 km
1000 to 3000 ft
1500m to 5 km
500 to 1000 ft
800 to 1500m
200 to 500 ft
< 800m
< 200 ft
Symbols :   Thunderstorms  Fog  Heavy snow  Heavy precipitations  Wind > 20 kt
SIGMETs :     Misc.  Thunderstorms  Icing  Turbulence  Mountain Waves  Volcanic Ashes







- Airport Elevation : 56 ft
- IATA code : ILY
- Download approach charts


EGPI - Islay

CURRENT METAR :
  • 161950Z 21014KT 6000 RA FEW018 SCT024 BKN035 12/11 Q1008

EXPIRED METARs :
  • 161920Z 16008KT 140V200 9999 -RA FEW029 BKN033 BKN041 13/11 Q1007
  • 161850Z 18008KT 150V210 9999 -RA SCT033 BKN039 13/11 Q1007
  • 161820Z 16007KT 9999 BKN039 13/11 Q1007
  • 161750Z AUTO 17008KT 130V200 9999 OVC045/// 13/10 Q1007
  • 161720Z 17010KT 120V200 9999 OVC045 13/11 Q1007

Expired Forecast.
No reported NOTAMs for that airfield.
2 SIGMETs reported for the Scottish FIR (EGPX) :
 
Severe turbulence
EGPX SIGMET 10 VALID 161900/162300 EGRR
EGPX SCOTTISH FIR SEV TURB FCST WI N6100 W01000 - N6100 W00243 - N5911 W00518 - N5921 W01000 - N6100 W01000 SFC/FL050 MOV NE 25KT WKN=
Severe mountain waves
EGPX SIGMET 09 VALID 161900/162300 EGRR
EGPX SCOTTISH FIR SEV MTW FCST WI N6100 W00015 - N5524 W00204 - N5607 W00646 - N6100 W00424 - N6100 W00015 FL050/250 STNR WKN=



MET'MAP, your aeronautical weather chart ! - Copyright ORBIFLY December 2007 - Disclaimer

ORBIFLY MET'MAP TEAM :

Programming & Development : Alexandra Zaïnal
Concept & Development : Baudouin d'Aumeries
Co-Development & Prog : Marc-Olivier Méhu
Technical & hardware support : Manuel Goepfert

Contact : metmap@orbifly.com




SOURCES & CREDITS :

   NOAA